Havelock, North Dakota
Current Conditions -  °F | °C
As of 7:56 PM on Saturday 24 Jan 2015 (Local Time) from KDIK Reporting Station
Overcast Overcast  
Wind Chill: 28°   Ceiling: 2200
Heat Index: 38°   Visibility: 10mi
Dew Point: 32°   Wind: 20mph
Humidity: 79%   Direction: 310°NW
Pressure: 29.85"   Gusts: 32mph
Location:  46.4704°N, 102.78°W
Report Text: KDIK 250256Z AUTO 31017G28KT 10SM BKN022 OVC036 03/00 A2985 RMK AO2 PK WND 31028/0233 SLP127 T00330000 53016
Loading
Personal Weather Stations






























Interactive Weather Map New forecast layout! Learn more

10-Day Weather Forecast

Advertisements
Track Severe Weather on mobile